Time;durP1;ratioP1;P1;durP2;ratioP2;P2;SDS_P1;SDS_P2;PMS_P1;PMS_P2;Temp;Humidity;BMP_temperature;BMP_pressure;BME280_temperature;BME280_humidity;BME280_pressure;Samples;Min_cycle;Max_cycle;Signal;HPM_P1;HPM_P2
2024/01/12 00:00:27;;;;;;;8.03;5.60;;;;;;;-144.30;67.47;86828.03;5049553;28;20200;-56
2024/01/12 00:02:54;;;;;;;10.77;6.47;;;;;;;-144.30;67.48;86790.25;5049200;28;20242;-57
2024/01/12 00:05:21;;;;;;;7.73;5.43;;;;;;;-144.30;68.54;86814.13;5049644;28;20219;-57
2024/01/12 00:07:48;;;;;;;8.60;5.87;;;;;;;-144.30;69.18;86832.03;5049384;28;20207;-58
2024/01/12 00:10:17;;;;;;;8.93;6.20;;;;;;;-144.30;69.00;86839.97;5049530;28;20212;-58
2024/01/12 00:12:44;;;;;;;13.37;6.37;;;;;;;-144.30;68.36;86832.03;5049485;28;20209;-58
2024/01/12 00:15:11;;;;;;;10.03;5.87;;;;;;;-144.30;68.23;86808.16;5053315;28;20206;-58
2024/01/12 00:17:37;;;;;;;11.03;6.97;;;;;;;-144.30;68.29;86847.94;5053070;28;20201;-58
2024/01/12 00:20:05;;;;;;;9.53;5.97;;;;;;;-144.30;68.59;86843.97;5053215;28;20210;-57
2024/01/12 00:22:32;;;;;;;11.43;6.47;;;;;;;-144.30;68.28;86814.13;5053364;28;20732;-57
2024/01/12 00:24:59;;;;;;;10.73;7.13;;;;;;;-144.30;68.34;86828.03;5053080;28;20700;-58
2024/01/12 00:27:27;;;;;;;6.40;5.43;;;;;;;-144.30;68.97;86822.09;5053282;28;20695;-58
2024/01/12 00:29:54;;;;;;;9.57;6.17;;;;;;;-144.30;69.33;86838.00;5053014;28;20192;-58
2024/01/12 00:32:21;;;;;;;9.13;6.87;;;;;;;-144.30;69.85;86818.09;5053031;28;20200;-57
2024/01/12 00:34:48;;;;;;;8.40;5.93;;;;;;;-144.30;69.43;86828.03;5053099;28;20204;-57
2024/01/12 00:37:15;;;;;;;10.97;7.00;;;;;;;-144.30;69.75;86820.09;5052892;28;20207;-59
2024/01/12 00:39:42;;;;;;;16.07;7.30;;;;;;;-144.30;69.69;86800.19;5052712;28;20271;-64
2024/01/12 00:42:09;;;;;;;13.77;7.50;;;;;;;-144.30;70.29;86824.06;5052630;28;20585;-64
2024/01/12 00:44:37;;;;;;;9.40;6.03;;;;;;;-144.30;69.88;86810.16;5052675;28;20217;-64
2024/01/12 00:47:04;;;;;;;11.63;6.83;;;;;;;-144.30;68.98;86816.13;5052848;28;20197;-58
2024/01/12 00:49:31;;;;;;;12.33;7.97;;;;;;;-144.30;69.27;86830.03;5052791;28;20202;-63
2024/01/12 00:51:58;;;;;;;10.57;6.70;;;;;;;-144.30;69.61;86865.84;5052559;28;20200;-63
2024/01/12 00:54:26;;;;;;;9.53;6.93;;;;;;;-144.30;69.92;86818.09;5052608;28;20193;-63
2024/01/12 00:56:53;;;;;;;11.27;7.87;;;;;;;-144.30;69.78;86855.88;5052307;28;20192;-62
2024/01/12 00:59:22;;;;;;;12.87;7.23;;;;;;;-144.30;70.52;86832.03;5052475;28;20196;-58
2024/01/12 01:01:53;;;;;;;13.10;6.90;;;;;;;-144.30;70.25;86847.94;5052275;28;20274;-59
2024/01/12 01:04:20;;;;;;;8.53;6.60;;;;;;;-144.30;69.03;86836.00;5052195;28;20225;-57
2024/01/12 01:06:47;;;;;;;10.20;6.83;;;;;;;-144.30;67.98;86834.00;5052211;28;20209;-64
2024/01/12 01:09:14;;;;;;;12.70;6.83;;;;;;;-144.30;66.41;86782.31;5052169;28;20196;-62
2024/01/12 01:11:41;;;;;;;10.17;6.33;;;;;;;-144.30;65.85;86871.81;5052153;28;20234;-63
2024/01/12 01:14:08;;;;;;;8.73;5.80;;;;;;;-144.30;65.45;86847.94;5052211;28;20188;-62
2024/01/12 01:16:35;;;;;;;10.07;6.50;;;;;;;-144.30;64.47;86851.91;5052013;28;20207;-63
2024/01/12 01:19:03;;;;;;;9.03;5.70;;;;;;;-144.30;63.97;86826.06;5052101;28;20205;-63
2024/01/12 01:21:30;;;;;;;13.50;7.13;;;;;;;-144.30;62.43;86826.06;5052137;28;20547;-63
2024/01/12 01:23:57;;;;;;;11.87;5.73;;;;;;;-144.30;60.96;86839.97;5051761;28;20290;-63
2024/01/12 01:26:24;;;;;;;15.63;6.03;;;;;;;-144.30;59.71;86839.97;5051338;28;20197;-64
2024/01/12 01:28:51;;;;;;;8.87;5.90;;;;;;;-144.30;59.26;86808.16;5051551;28;20196;-63
2024/01/12 01:31:18;;;;;;;6.40;5.10;;;;;;;-144.30;59.40;86839.97;5051837;28;20311;-58
2024/01/12 01:33:45;;;;;;;10.00;5.27;;;;;;;-144.30;59.78;86818.09;5051536;28;20193;-62
2024/01/12 01:36:13;;;;;;;12.17;5.70;;;;;;;-144.30;59.57;86828.03;5051772;28;20691;-63
2024/01/12 01:38:40;;;;;;;6.97;4.93;;;;;;;-144.30;59.06;86832.03;5051418;28;20198;-63
2024/01/12 01:41:07;;;;;;;9.93;5.63;;;;;;;-144.30;59.37;86828.03;5051614;28;20267;-64
2024/01/12 01:43:34;;;;;;;7.53;4.80;;;;;;;-144.30;59.81;86828.03;5051439;28;20278;-63
2024/01/12 01:46:01;;;;;;;7.63;5.10;;;;;;;-144.30;59.10;86784.28;5051940;28;20203;-58
2024/01/12 01:48:29;;;;;;;10.33;5.47;;;;;;;-144.30;59.12;86836.00;5051662;28;20553;-58
2024/01/12 01:50:56;;;;;;;8.80;5.57;;;;;;;-144.30;59.17;86778.31;5051215;28;20594;-58
2024/01/12 01:53:24;;;;;;;8.93;6.27;;;;;;;-144.30;59.46;86859.88;5051620;28;20208;-58
2024/01/12 01:55:51;;;;;;;7.70;5.70;;;;;;;-144.30;59.83;86786.28;5051473;28;20557;-58
2024/01/12 01:58:19;;;;;;;10.10;5.50;;;;;;;-144.30;60.14;86834.00;5051298;28;20199;-57
2024/01/12 02:00:48;;;;;;;8.10;5.57;;;;;;;-144.30;60.48;86838.00;5050949;28;20197;-57
2024/01/12 02:03:16;;;;;;;9.07;5.47;;;;;;;-144.30;60.99;86824.06;5051129;28;20201;-56
2024/01/12 02:05:44;;;;;;;8.27;5.70;;;;;;;-144.30;60.97;86816.13;5050943;28;20687;-57
2024/01/12 02:08:12;;;;;;;9.97;5.70;;;;;;;-144.30;61.40;86822.09;5051055;28;20196;-58
2024/01/12 02:10:40;;;;;;;9.13;5.73;;;;;;;-144.30;61.41;86839.97;5051030;28;20194;-57
2024/01/12 02:13:07;;;;;;;8.50;5.27;;;;;;;-144.30;61.09;86828.03;5051183;28;20582;-57
2024/01/12 02:15:34;;;;;;;7.30;6.00;;;;;;;-144.30;61.28;86816.13;5051039;28;20193;-58
2024/01/12 02:18:01;;;;;;;6.70;5.80;;;;;;;-144.30;60.96;86849.91;5050870;28;20288;-58
2024/01/12 02:20:28;;;;;;;7.50;5.73;;;;;;;-144.30;60.54;86808.16;5050906;28;20194;-57
2024/01/12 02:22:56;;;;;;;10.00;6.20;;;;;;;-144.30;60.33;86847.94;5050765;28;20196;-57
2024/01/12 02:25:24;;;;;;;6.87;5.50;;;;;;;-144.30;60.04;86843.97;5050798;28;20216;-58
2024/01/12 02:27:51;;;;;;;8.73;5.50;;;;;;;-144.30;59.92;86802.19;5050710;28;20201;-57
2024/01/12 02:30:18;;;;;;;12.17;5.67;;;;;;;-144.30;60.53;86820.09;5050822;28;20207;-57
2024/01/12 02:32:45;;;;;;;8.50;5.13;;;;;;;-144.30;61.20;86784.28;5050441;28;20196;-57
2024/01/12 02:35:12;;;;;;;8.57;6.07;;;;;;;-144.30;62.06;86778.31;5050792;28;20192;-58
2024/01/12 02:37:39;;;;;;;10.67;5.50;;;;;;;-144.30;62.67;86808.16;5050755;28;20578;-58
2024/01/12 02:40:08;;;;;;;9.57;5.97;;;;;;;-144.30;63.59;86812.13;5050795;28;20192;-57
2024/01/12 02:42:35;;;;;;;16.43;6.50;;;;;;;-144.30;64.25;86826.06;5050449;28;20204;-56
2024/01/12 02:45:02;;;;;;;8.30;5.90;;;;;;;-144.30;64.09;86832.03;5050520;28;20348;-57
2024/01/12 02:47:29;;;;;;;12.00;5.97;;;;;;;-144.30;64.60;86849.91;5050433;28;20304;-63
2024/01/12 02:49:59;;;;;;;9.20;5.60;;;;;;;-144.30;64.21;86861.84;5050335;28;20248;-63
2024/01/12 02:52:26;;;;;;;8.93;5.93;;;;;;;-144.30;64.02;86800.19;5050466;28;20196;-63
2024/01/12 02:54:53;;;;;;;6.97;5.30;;;;;;;-144.30;63.96;86841.97;5050298;28;20579;-63
2024/01/12 02:57:21;;;;;;;8.40;5.70;;;;;;;-144.30;63.80;86855.88;5050356;28;20554;-56
2024/01/12 02:59:48;;;;;;;7.63;5.57;;;;;;;-144.30;63.20;86820.09;5050001;28;20197;-62
2024/01/12 03:02:15;;;;;;;8.57;5.40;;;;;;;-144.30;62.88;86824.06;5050080;28;20246;-63
2024/01/12 03:04:42;;;;;;;7.43;5.53;;;;;;;-144.30;62.87;86836.00;5050287;28;20224;-57
2024/01/12 03:07:10;;;;;;;7.23;5.10;;;;;;;-144.30;61.92;86814.13;5050342;28;20753;-63
2024/01/12 03:09:37;;;;;;;8.70;5.50;;;;;;;-144.30;61.43;86863.84;5050469;28;20211;-57
2024/01/12 03:12:04;;;;;;;7.50;5.30;;;;;;;-144.30;60.57;86818.09;5050172;28;20299;-57
2024/01/12 03:14:32;;;;;;;8.07;5.73;;;;;;;-144.30;59.55;86800.19;5050438;28;20203;-58
2024/01/12 03:16:59;;;;;;;9.77;5.20;;;;;;;-144.30;59.75;86800.19;5050092;28;20206;-63
2024/01/12 03:19:26;;;;;;;7.17;5.13;;;;;;;-144.30;59.92;86873.78;5049993;28;20201;-62
2024/01/12 03:21:53;;;;;;;6.43;5.17;;;;;;;-144.30;59.94;86830.03;5050123;28;20661;-63
2024/01/12 03:24:20;;;;;;;7.23;5.67;;;;;;;-144.30;60.09;86814.13;5050025;28;20214;-63
2024/01/12 03:26:47;;;;;;;8.20;5.00;;;;;;;-144.30;59.61;86772.34;5049823;28;20219;-63
2024/01/12 03:29:14;;;;;;;7.93;5.20;;;;;;;-144.30;59.24;86845.94;5050308;28;20258;-63
2024/01/12 03:31:43;;;;;;;7.63;6.10;;;;;;;-144.30;59.24;86804.19;5049990;28;20252;-63
2024/01/12 03:34:10;;;;;;;14.50;6.27;;;;;;;-144.30;58.45;86808.16;5050017;28;20280;-63
2024/01/12 03:36:36;;;;;;;6.90;5.17;;;;;;;-144.30;58.65;86768.38;5049984;28;20203;-63
2024/01/12 03:39:04;;;;;;;7.53;5.90;;;;;;;-144.30;58.03;86784.28;5049805;28;20193;-63
2024/01/12 03:41:31;;;;;;;24.23;6.20;;;;;;;-144.30;57.76;86832.03;5049691;28;20200;-63
2024/01/12 03:43:58;;;;;;;8.60;5.30;;;;;;;-144.30;57.48;86820.09;5049492;28;20299;-63
2024/01/12 03:46:25;;;;;;;8.97;5.37;;;;;;;-144.30;57.78;86824.06;5049716;28;20288;-57
2024/01/12 03:48:54;;;;;;;8.30;5.80;;;;;;;-144.30;57.99;86804.19;5051905;28;20197;-58
2024/01/12 03:51:21;;;;;;;12.27;5.47;;;;;;;-144.30;58.16;86812.13;5054020;28;20200;-57
2024/01/12 03:53:48;;;;;;;7.00;4.97;;;;;;;-144.30;57.77;86832.03;5053639;28;20506;-57
2024/01/12 03:56:15;;;;;;;14.63;6.33;;;;;;;-144.30;57.96;86851.91;5053581;28;20639;-57
2024/01/12 03:58:42;;;;;;;7.50;5.30;;;;;;;-144.30;57.94;86766.41;5053864;28;20692;-59
2024/01/12 04:01:10;;;;;;;11.90;5.37;;;;;;;-144.30;57.67;86816.13;5053579;28;20286;-58
2024/01/12 04:03:37;;;;;;;7.30;5.07;;;;;;;-144.30;57.19;86804.19;5053730;28;20224;-63
2024/01/12 04:06:09;;;;;;;8.20;4.87;;;;;;;-144.30;56.70;86804.19;5053444;28;20218;-62
2024/01/12 04:08:36;;;;;;;11.53;5.57;;;;;;;-144.30;57.73;86804.19;5053475;28;20208;-57
2024/01/12 04:11:03;;;;;;;7.70;5.57;;;;;;;-144.30;58.21;86822.09;5053411;28;20205;-56
2024/01/12 04:13:30;;;;;;;10.40;5.60;;;;;;;-144.30;57.22;86764.41;5053638;28;20692;-57
2024/01/12 04:15:57;;;;;;;9.10;5.80;;;;;;;-144.30;56.55;86776.34;5053257;28;20193;-62
2024/01/12 04:18:24;;;;;;;10.43;5.27;;;;;;;-144.30;56.58;86824.06;5053359;28;20292;-63
2024/01/12 04:20:51;;;;;;;11.97;6.50;;;;;;;-144.30;56.68;86800.19;5053309;28;20196;-63
2024/01/12 04:23:19;;;;;;;10.50;6.30;;;;;;;-144.30;56.51;86808.16;5059358;28;20201;-57
2024/01/12 04:25:46;;;;;;;10.05;6.88;;;;;;;-144.30;56.40;86816.13;5066009;28;20443;-57
2024/01/12 04:28:13;;;;;;;10.97;6.67;;;;;;;-144.30;56.56;86790.25;5061688;28;20205;-58
2024/01/12 04:30:40;;;;;;;7.67;5.60;;;;;;;-144.30;56.00;86820.09;5062903;28;20192;-58
2024/01/12 04:33:07;;;;;;;10.00;6.03;;;;;;;-144.30;56.32;86792.25;5063229;28;20209;-63
2024/01/12 04:35:34;;;;;;;12.93;5.83;;;;;;;-144.30;56.25;86772.34;5061329;28;20189;-62
2024/01/12 04:38:00;;;;;;;10.90;6.07;;;;;;;-144.30;56.05;86814.13;5059706;28;20278;-64
2024/01/12 04:40:29;;;;;;;10.60;6.50;;;;;;;-144.30;56.00;86808.16;5052930;28;20207;-61
2024/01/12 04:42:56;;;;;;;13.10;6.17;;;;;;;-144.30;55.85;86806.16;5055721;28;20289;-63
2024/01/12 04:45:23;;;;;;;9.83;5.73;;;;;;;-144.30;56.09;86802.19;5072575;28;20319;-57
2024/01/12 04:47:49;;;;;;;18.53;8.20;;;;;;;-144.30;56.11;86744.53;5072473;28;20668;-63
2024/01/12 04:50:16;;;;;;;8.90;6.60;;;;;;;-144.30;56.34;86843.97;5072382;28;20196;-64
2024/01/12 04:52:43;;;;;;;9.63;5.90;;;;;;;-144.30;56.05;86784.28;5072709;28;20605;-64
2024/01/12 04:55:10;;;;;;;10.40;6.13;;;;;;;-144.30;56.18;86820.09;5053786;28;20240;-63
2024/01/12 04:57:38;;;;;;;8.27;6.13;;;;;;;-144.30;56.58;86828.03;5052497;28;20196;-65
2024/01/12 05:00:07;;;;;;;9.63;6.03;;;;;;;-144.30;56.22;86790.25;5050826;28;20556;-64
2024/01/12 05:02:34;;;;;;;11.67;6.47;;;;;;;-144.30;56.19;86824.06;5051703;28;20232;-63
2024/01/12 05:05:03;;;;;;;9.67;5.93;;;;;;;-144.30;55.44;86820.09;5052099;28;20228;-64
2024/01/12 05:07:29;;;;;;;8.87;5.67;;;;;;;-144.30;55.50;86816.13;5052218;28;20192;-55
2024/01/12 05:09:56;;;;;;;11.90;5.23;;;;;;;-144.30;55.28;86845.94;5052153;28;20625;-57
2024/01/12 05:12:23;;;;;;;8.83;5.80;;;;;;;-144.30;55.83;86836.00;5051994;28;20240;-61
2024/01/12 05:14:51;;;;;;;7.47;5.20;;;;;;;-144.30;55.59;86788.28;5051800;28;20193;-58
2024/01/12 05:17:20;;;;;;;9.43;5.27;;;;;;;-144.30;57.03;86798.22;5052537;28;20196;-59
2024/01/12 05:19:47;;;;;;;8.17;5.60;;;;;;;-144.30;56.48;86792.25;5052203;28;20227;-59
2024/01/12 05:22:14;;;;;;;10.50;6.30;;;;;;;-144.30;56.25;86800.19;5052481;28;20197;-64
2024/01/12 05:24:41;;;;;;;11.27;6.20;;;;;;;-144.30;56.93;86847.94;5051414;28;20226;-65
2024/01/12 05:27:08;;;;;;;8.07;6.03;;;;;;;-144.30;56.82;86792.25;5051997;28;20223;-64
2024/01/12 05:29:37;;;;;;;7.03;4.97;;;;;;;-144.30;56.63;86832.03;5051478;28;20699;-65
2024/01/12 05:32:06;;;;;;;8.40;5.90;;;;;;;-144.30;56.52;86828.03;5050285;28;20287;-64
2024/01/12 05:34:36;;;;;;;11.20;5.43;;;;;;;-144.30;56.63;86814.13;5050388;28;20201;-64
2024/01/12 05:37:09;;;;;;;9.13;5.53;;;;;;;-144.30;56.75;86839.97;5050970;28;20197;-64
2024/01/12 05:39:36;;;;;;;8.60;6.13;;;;;;;-144.30;56.59;86802.19;5050060;28;20229;-64
2024/01/12 05:42:03;;;;;;;9.33;6.37;;;;;;;-144.30;56.64;86824.06;5051431;28;20615;-64
2024/01/12 05:44:30;;;;;;;12.90;5.93;;;;;;;-144.30;57.61;86812.13;5051366;28;20588;-65
2024/01/12 05:47:03;;;;;;;8.73;5.70;;;;;;;-144.30;57.69;86822.09;5051359;28;20202;-64
2024/01/12 05:49:33;;;;;;;7.30;5.43;;;;;;;-144.30;57.62;86824.06;5051650;28;20194;-59
2024/01/12 05:52:00;;;;;;;9.83;6.27;;;;;;;-144.30;56.65;86818.09;5051486;28;20583;-59
2024/01/12 05:54:28;;;;;;;8.47;5.03;;;;;;;-144.30;56.60;86822.09;5051314;28;20287;-57
2024/01/12 05:56:59;;;;;;;17.23;5.53;;;;;;;-144.30;56.51;86599.34;5051151;28;20200;-64
2024/01/12 05:59:29;;;;;;;7.30;5.33;;;;;;;-144.30;56.41;86808.16;5051441;28;20748;-64
2024/01/12 06:01:56;;;;;;;7.37;5.40;;;;;;;-144.30;55.53;86826.06;5050990;28;20243;-58
2024/01/12 06:04:23;;;;;;;9.60;5.90;;;;;;;-144.30;55.06;86820.09;5051290;28;20193;-58
2024/01/12 06:06:54;;;;;;;6.17;5.03;;;;;;;-144.30;55.05;86800.19;5051014;28;20243;-59
2024/01/12 06:09:24;;;;;;;10.37;5.43;;;;;;;-144.30;55.06;86824.06;5051152;28;20242;-64
2024/01/12 06:11:53;;;;;;;10.10;5.40;;;;;;;-144.30;55.16;86754.47;5050571;28;20200;-64
2024/01/12 06:14:23;;;;;;;10.40;5.60;;;;;;;-144.30;55.68;86818.09;5051067;28;20192;-65
2024/01/12 06:16:52;;;;;;;8.67;5.90;;;;;;;-144.30;55.70;86808.16;5051013;28;20583;-64
2024/01/12 06:19:19;;;;;;;12.20;5.73;;;;;;;-144.30;55.79;86816.13;5050953;28;20205;-64
2024/01/12 06:24:39;;;;;;;13.20;6.27;;;;;;;-144.30;55.71;86822.09;5050035;28;20270;-64
2024/01/12 06:27:12;;;;;;;10.80;6.53;;;;;;;-144.30;55.91;86806.16;5060995;28;20226;-64
2024/01/12 06:29:41;;;;;;;14.67;6.30;;;;;;;-144.30;55.50;86796.22;5070637;28;20200;-64
2024/01/12 06:32:11;;;;;;;8.97;5.97;;;;;;;-144.30;55.68;86804.19;5070694;28;20199;-57
2024/01/12 06:34:42;;;;;;;9.73;5.57;;;;;;;-144.30;55.01;86808.16;5070622;28;20196;-57
2024/01/12 06:37:41;;;;;;;13.53;6.37;;;;;;;-144.30;54.68;86814.13;5070467;28;20201;-57
2024/01/12 06:40:31;;;;;;;9.63;6.27;;;;;;;-144.30;54.91;86798.22;5070436;28;20206;-57
2024/01/12 06:43:01;;;;;;;10.13;5.87;;;;;;;-144.30;55.54;86816.13;5070315;28;20199;-59
2024/01/12 06:45:46;;;;;;;8.00;5.87;;;;;;;-144.30;56.51;86796.22;5070342;28;20228;-58
2024/01/12 06:48:17;;;;;;;8.03;5.70;;;;;;;-144.30;55.39;86792.25;5070446;28;20204;-60
2024/01/12 06:50:50;;;;;;;11.33;7.03;;;;;;;-144.30;55.30;86788.28;5070334;28;20296;-60
2024/01/12 06:53:32;;;;;;;9.20;6.90;;;;;;;-144.30;55.10;86748.50;5070407;28;20199;-58
2024/01/12 06:56:07;;;;;;;10.40;6.93;;;;;;;-144.30;55.42;86798.22;5070466;28;20653;-58
2024/01/12 06:58:34;;;;;;;13.37;7.83;;;;;;;-144.30;55.78;86778.31;5070319;28;20204;-58
2024/01/12 07:01:02;;;;;;;11.47;7.53;;;;;;;-144.30;55.86;86841.97;5069979;28;20208;-59
2024/01/12 07:03:38;;;;;;;13.20;7.87;;;;;;;-144.30;55.88;86764.41;5070761;28;20197;-59
2024/01/12 07:06:17;;;;;;;16.57;8.30;;;;;;;-144.30;55.68;86808.16;5069961;28;20226;-59
2024/01/12 07:09:05;;;;;;;;;;;;;;;;;;;;;
2024/01/12 07:11:33;;;;;;;14.13;8.77;;;;;;;-144.30;55.35;86782.31;5068918;28;20681;-61
2024/01/12 07:14:20;;;;;;;15.37;8.47;;;;;;;-144.30;54.70;86772.34;5069916;28;20193;-60
2024/01/12 07:16:50;;;;;;;22.53;10.70;;;;;;;-144.30;54.67;86764.41;5070092;28;20190;-62
2024/01/12 07:19:21;;;;;;;19.60;8.23;;;;;;;-144.30;54.15;86718.66;5070118;28;20694;-60
2024/01/12 07:22:02;;;;;;;14.57;8.40;;;;;;;-144.30;54.25;86780.31;5070125;28;20195;-59
2024/01/12 07:24:35;;;;;;;12.57;7.60;;;;;;;-144.30;54.18;86752.47;5069546;28;20203;-61
2024/01/12 07:27:42;;;;;;;10.57;7.30;;;;;;;-144.30;53.77;86724.63;5060285;28;20301;-62
2024/01/12 07:30:19;;;;;;;17.40;8.10;;;;;;;-144.30;53.30;86712.69;5056032;28;20199;-64
2024/01/12 07:32:51;;;;;;;11.90;7.40;;;;;;;-144.30;52.97;86686.84;5052293;28;20290;-65
2024/01/12 07:35:35;;;;;;;16.23;8.47;;;;;;;-144.30;53.07;86720.66;5068880;28;20211;-66
2024/01/12 07:38:18;;;;;;;14.67;7.83;;;;;;;-144.30;52.79;86736.56;5056997;28;20203;-65
2024/01/12 07:40:54;;;;;;;15.20;8.00;;;;;;;-144.30;52.17;86748.50;5056141;28;20249;-65
2024/01/12 07:43:30;;;;;;;14.50;7.47;;;;;;;-144.30;52.22;86664.97;5067468;28;20210;-65
2024/01/12 07:49:42;;;;;;;16.40;8.57;;;;;;;-144.30;52.29;86728.59;5007652;28;20248;-63
2024/01/12 07:52:11;;;;;;;13.60;7.73;;;;;;;-144.30;52.20;86728.59;4992385;28;20239;-64
2024/01/12 07:54:38;;;;;;;11.60;7.53;;;;;;;-144.30;52.02;86716.69;5049522;28;20661;-64
2024/01/12 07:57:05;;;;;;;15.10;7.83;;;;;;;-144.30;51.67;86732.59;5048995;28;20199;-64
2024/01/12 07:59:32;;;;;;;13.30;8.13;;;;;;;-144.30;51.78;86718.66;5049400;28;20251;-64
2024/01/12 08:01:59;;;;;;;14.60;8.30;;;;;;;-144.30;52.04;86714.69;5049109;28;20232;-64
2024/01/12 08:04:26;;;;;;;12.63;7.77;;;;;;;-144.30;52.39;86674.91;5049739;28;20193;-65
2024/01/12 08:06:54;;;;;;;12.00;8.17;;;;;;;-144.30;52.73;86706.72;5049291;28;20219;-64
2024/01/12 08:09:21;;;;;;;12.70;7.93;;;;;;;-144.30;52.54;86720.66;5058436;28;20279;-65
2024/01/12 08:11:48;;;;;;;10.27;7.63;;;;;;;-144.30;52.39;86728.59;5055073;28;20724;-64
2024/01/12 08:14:15;;;;;;;15.07;8.33;;;;;;;-144.30;52.36;86674.91;5049516;28;20294;-65
2024/01/12 08:16:42;;;;;;;15.97;8.53;;;;;;;-144.30;52.61;86726.63;5049387;28;20204;-65
2024/01/12 08:19:09;;;;;;;13.20;7.30;;;;;;;-144.30;52.32;86678.88;5049407;28;20584;-65
2024/01/12 08:21:36;;;;;;;10.70;7.30;;;;;;;-144.30;52.78;86720.66;5065640;28;20559;-66
2024/01/12 08:24:04;;;;;;;15.03;8.10;;;;;;;-144.30;52.74;86704.75;5068459;28;20617;-65
2024/01/12 08:26:31;;;;;;;14.33;8.27;;;;;;;-144.30;52.39;86653.03;5069582;28;20693;-66
2024/01/12 08:29:01;;;;;;;14.80;8.03;;;;;;;-144.30;52.55;86676.91;5069368;28;20196;-65
2024/01/12 08:31:28;;;;;;;13.40;8.17;;;;;;;-144.30;52.48;86653.03;5069369;28;20196;-66
2024/01/12 08:33:55;;;;;;;13.67;7.53;;;;;;;-144.30;52.23;86680.88;5070148;28;20228;-65
2024/01/12 08:36:22;;;;;;;11.83;7.60;;;;;;;-144.30;51.48;86668.94;5073185;28;20199;-65
2024/01/12 08:38:49;;;;;;;10.40;7.67;;;;;;;-144.30;51.23;86668.94;5072849;28;20192;-64
2024/01/12 08:41:18;;;;;;;14.90;8.07;;;;;;;-144.30;50.56;86664.97;5072944;28;20203;-64
2024/01/12 08:43:45;;;;;;;15.23;8.73;;;;;;;-144.30;50.24;86645.09;5072734;28;20192;-65
2024/01/12 08:46:12;;;;;;;21.93;10.77;;;;;;;-144.30;49.77;86664.97;5072716;28;20224;-64
2024/01/12 08:48:39;;;;;;;14.30;7.70;;;;;;;-144.30;49.68;86637.13;5073035;28;20196;-64
2024/01/12 08:51:06;;;;;;;11.50;7.40;;;;;;;-144.30;49.04;86657.03;5072791;28;20584;-65
2024/01/12 08:53:33;;;;;;;11.93;8.17;;;;;;;-144.30;49.19;86631.16;5072817;28;20204;-64
2024/01/12 08:56:00;;;;;;;13.43;7.90;;;;;;;-144.30;48.95;86615.25;5072527;28;20249;-64
2024/01/12 08:58:28;;;;;;;14.97;7.43;;;;;;;-144.30;49.70;86651.06;5072617;28;20192;-64
2024/01/12 09:00:55;;;;;;;13.20;8.30;;;;;;;-144.30;49.21;86645.09;5072497;28;20222;-65
2024/01/12 09:03:21;;;;;;;13.60;8.17;;;;;;;-144.30;49.22;86688.84;5072719;28;20200;-65
2024/01/12 09:05:48;;;;;;;12.27;7.27;;;;;;;-144.30;49.31;86680.88;5072364;28;20206;-66
2024/01/12 09:08:15;;;;;;;11.97;6.60;;;;;;;-144.30;49.66;86680.88;5072334;28;20196;-66
2024/01/12 09:10:42;;;;;;;10.63;6.67;;;;;;;-144.30;49.98;86653.03;5072650;28;20592;-66
2024/01/12 09:13:09;;;;;;;9.87;7.40;;;;;;;-144.30;50.03;86686.84;5072296;28;20196;-65
2024/01/12 09:15:37;;;;;;;12.73;7.77;;;;;;;-144.30;49.90;86643.09;5072184;28;20200;-64
2024/01/12 09:18:06;;;;;;;15.97;7.17;;;;;;;-144.30;50.16;86686.84;5072080;28;20201;-66
2024/01/12 09:20:33;;;;;;;20.33;7.30;;;;;;;-144.30;50.09;86662.97;5072303;28;20206;-66
2024/01/12 09:23:00;;;;;;;12.60;7.00;;;;;;;-144.30;50.46;86708.72;5072188;28;20202;-66
2024/01/12 09:25:27;;;;;;;12.00;6.97;;;;;;;-144.30;50.21;86680.88;5072235;28;20198;-66
2024/01/12 09:27:57;;;;;;;14.63;8.40;;;;;;;-144.30;50.41;86678.88;5071850;28;20224;-65
2024/01/12 09:30:24;;;;;;;10.53;7.63;;;;;;;-144.30;50.06;86645.09;5072297;28;20695;-65
2024/01/12 09:32:52;;;;;;;11.03;7.50;;;;;;;-144.30;50.75;86678.88;5072085;28;20192;-65
2024/01/12 09:35:19;;;;;;;12.07;7.90;;;;;;;-144.30;51.20;86690.81;5072017;28;20200;-65
2024/01/12 09:37:46;;;;;;;11.73;8.23;;;;;;;-144.30;51.18;86686.84;5071739;28;20253;-64
2024/01/12 09:40:13;;;;;;;12.13;8.30;;;;;;;-144.30;51.21;86609.28;5071836;28;20203;-65
2024/01/12 09:42:43;;;;;;;14.50;8.77;;;;;;;-144.30;51.08;86682.88;5072112;28;20196;-66
2024/01/12 09:45:14;;;;;;;16.67;8.50;;;;;;;-144.30;51.23;86641.09;5071686;28;20246;-64
2024/01/12 09:47:42;;;;;;;22.40;8.17;;;;;;;-144.30;51.21;86672.94;5071493;28;20220;-65
2024/01/12 09:50:11;;;;;;;15.40;8.47;;;;;;;-144.30;50.91;86666.97;5071949;28;20627;-65
2024/01/12 09:52:38;;;;;;;12.70;7.27;;;;;;;-144.30;51.10;86666.97;5071580;28;20230;-65
2024/01/12 09:55:06;;;;;;;14.23;7.77;;;;;;;-144.30;51.03;86672.94;5065970;28;20208;-64
2024/01/12 09:57:34;;;;;;;13.30;7.43;;;;;;;-144.30;50.95;86597.34;5060598;28;20683;-66
2024/01/12 10:00:05;;;;;;;12.03;8.23;;;;;;;-144.30;51.04;86657.03;5061808;28;20207;-67
2024/01/12 10:02:31;;;;;;;14.00;7.80;;;;;;;-144.30;51.21;86651.06;5058289;28;20224;-66
2024/01/12 10:04:58;;;;;;;15.77;7.70;;;;;;;-144.30;51.13;86657.03;5070712;28;20204;-66
2024/01/12 10:07:27;;;;;;;10.37;7.37;;;;;;;-144.30;50.99;86666.97;5071282;28;20230;-66
2024/01/12 10:09:54;;;;;;;14.33;7.97;;;;;;;-144.30;51.13;86661.00;5071242;28;20573;-64
2024/01/12 10:12:21;;;;;;;12.57;7.67;;;;;;;-144.30;50.48;86581.44;5071423;28;20202;-66
2024/01/12 10:14:48;;;;;;;16.03;8.77;;;;;;;-144.30;50.63;86577.47;5071067;28;20203;-65
2024/01/12 10:17:15;;;;;;;15.37;8.40;;;;;;;-144.30;50.36;86643.09;5071251;28;20668;-66
2024/01/12 10:19:42;;;;;;;16.97;7.73;;;;;;;-144.30;49.63;86609.28;5071333;28;20192;-66
2024/01/12 10:22:13;;;;;;;11.97;7.67;;;;;;;-144.30;49.55;86613.28;5071244;28;20201;-66
2024/01/12 10:24:42;;;;;;;12.97;7.73;;;;;;;-144.30;49.19;86617.25;5071328;28;20279;-66
2024/01/12 10:27:09;;;;;;;17.67;8.10;;;;;;;-144.30;48.86;86589.41;5070771;28;20226;-64
2024/01/12 10:29:38;;;;;;;14.23;7.63;;;;;;;-144.30;49.05;86619.22;5070983;28;20401;-66
2024/01/12 10:32:06;;;;;;;14.63;6.53;;;;;;;-144.30;48.95;86593.38;5070727;28;20195;-66
2024/01/12 10:34:34;;;;;;;12.43;7.80;;;;;;;-144.30;48.93;86605.31;5070788;28;20199;-64
2024/01/12 10:37:03;;;;;;;12.17;7.00;;;;;;;-144.30;48.86;86581.44;5070722;28;20192;-66
2024/01/12 10:39:35;;;;;;;11.40;7.27;;;;;;;-144.30;49.70;86567.53;5071193;28;20713;-65
2024/01/12 10:42:07;;;;;;;11.63;6.80;;;;;;;-144.30;47.88;86551.63;5070733;28;20192;-65
2024/01/12 10:44:40;;;;;;;12.40;7.50;;;;;;;-144.30;47.62;86354.75;5070509;28;20631;-65
2024/01/12 10:47:09;;;;;;;12.10;7.07;;;;;;;-144.30;46.26;86513.84;5070689;28;20244;-61
2024/01/12 10:49:48;;;;;;;17.43;8.50;;;;;;;-144.30;46.27;86509.84;5070567;28;20200;-62
2024/01/12 10:52:27;;;;;;;9.57;7.00;;;;;;;-144.30;45.83;86486.00;5070440;28;20206;-61
2024/01/12 10:55:03;;;;;;;13.47;8.50;;;;;;;-144.30;46.51;86446.22;5070379;28;20641;-60
2024/01/12 10:57:32;;;;;;;13.47;7.27;;;;;;;-144.30;45.92;86501.91;5069784;28;20575;-60
2024/01/12 11:00:00;;;;;;;13.57;7.90;;;;;;;-144.30;46.64;86424.34;5070598;28;20199;-62
2024/01/12 11:02:27;;;;;;;10.33;7.47;;;;;;;-144.30;46.99;86541.69;5070203;28;20230;-62
2024/01/12 11:04:56;;;;;;;11.33;6.70;;;;;;;-144.30;46.12;86517.81;5070191;28;20204;-63
2024/01/12 11:07:23;;;;;;;12.00;7.53;;;;;;;-144.30;46.55;86505.88;5070282;28;20226;-62
2024/01/12 11:09:51;;;;;;;44.60;9.70;;;;;;;-144.30;46.49;86517.81;5070428;28;20277;-63
2024/01/12 11:12:27;;;;;;;11.47;7.50;;;;;;;-144.30;47.31;86539.69;5070425;28;20200;-61
2024/01/12 11:14:55;;;;;;;11.00;6.77;;;;;;;-144.30;47.35;86599.34;5070132;28;20199;-62
2024/01/12 11:17:28;;;;;;;14.90;8.13;;;;;;;-144.30;47.88;86551.63;5070182;28;20192;-62
2024/01/12 11:20:04;;;;;;;12.53;7.97;;;;;;;-144.30;47.47;86505.88;5070318;28;20276;-63
2024/01/12 11:22:31;;;;;;;17.17;8.37;;;;;;;-144.30;47.25;86565.53;5070308;28;20686;-62
2024/01/12 11:24:58;;;;;;;12.03;8.10;;;;;;;-144.30;46.60;86513.84;5070109;28;20192;-62
2024/01/12 11:27:32;;;;;;;26.07;12.57;;;;;;;-144.30;46.58;86533.72;5069986;28;20215;-63